sensor_id;sensor_type;location;lat;lon;timestamp;P1;durP1;ratioP1;P2;durP2;ratioP2
12122;SDS011;6125;59.628;17.852;2022-10-31T00:01:18;3.90;;;2.17;;
12122;SDS011;6125;59.628;17.852;2022-10-31T00:03:47;3.67;;;2.20;;
12122;SDS011;6125;59.628;17.852;2022-10-31T00:06:14;3.53;;;2.10;;
12122;SDS011;6125;59.628;17.852;2022-10-31T00:08:43;4.70;;;2.13;;
12122;SDS011;6125;59.628;17.852;2022-10-31T00:11:10;3.73;;;2.10;;
12122;SDS011;6125;59.628;17.852;2022-10-31T00:13:37;4.20;;;2.27;;
12122;SDS011;6125;59.628;17.852;2022-10-31T00:16:12;4.70;;;2.63;;
12122;SDS011;6125;59.628;17.852;2022-10-31T00:18:42;3.07;;;2.10;;
12122;SDS011;6125;59.628;17.852;2022-10-31T00:21:09;6.73;;;2.40;;
12122;SDS011;6125;59.628;17.852;2022-10-31T00:23:36;3.60;;;2.20;;
12122;SDS011;6125;59.628;17.852;2022-10-31T00:26:03;4.23;;;2.43;;
12122;SDS011;6125;59.628;17.852;2022-10-31T00:28:32;5.20;;;2.87;;
12122;SDS011;6125;59.628;17.852;2022-10-31T00:30:59;4.63;;;2.33;;
12122;SDS011;6125;59.628;17.852;2022-10-31T00:33:32;4.27;;;2.40;;
12122;SDS011;6125;59.628;17.852;2022-10-31T00:36:09;2.90;;;2.17;;
12122;SDS011;6125;59.628;17.852;2022-10-31T00:38:39;5.60;;;2.67;;
12122;SDS011;6125;59.628;17.852;2022-10-31T00:41:06;3.93;;;2.57;;
12122;SDS011;6125;59.628;17.852;2022-10-31T00:43:32;6.50;;;2.90;;
12122;SDS011;6125;59.628;17.852;2022-10-31T00:45:59;3.53;;;2.30;;
12122;SDS011;6125;59.628;17.852;2022-10-31T00:48:26;3.07;;;2.07;;
12122;SDS011;6125;59.628;17.852;2022-10-31T00:50:55;3.47;;;2.40;;
12122;SDS011;6125;59.628;17.852;2022-10-31T00:53:25;3.03;;;2.27;;
12122;SDS011;6125;59.628;17.852;2022-10-31T00:55:52;3.87;;;2.13;;
12122;SDS011;6125;59.628;17.852;2022-10-31T00:58:19;4.33;;;2.10;;
12122;SDS011;6125;59.628;17.852;2022-10-31T01:00:46;3.47;;;2.10;;
12122;SDS011;6125;59.628;17.852;2022-10-31T01:03:19;8.03;;;3.27;;
12122;SDS011;6125;59.628;17.852;2022-10-31T01:05:56;7.97;;;2.30;;
12122;SDS011;6125;59.628;17.852;2022-10-31T01:08:23;5.10;;;2.47;;
12122;SDS011;6125;59.628;17.852;2022-10-31T01:11:01;2.90;;;2.27;;
12122;SDS011;6125;59.628;17.852;2022-10-31T01:13:32;2.63;;;2.33;;
12122;SDS011;6125;59.628;17.852;2022-10-31T01:15:59;4.27;;;2.43;;
12122;SDS011;6125;59.628;17.852;2022-10-31T01:18:31;4.53;;;3.37;;
12122;SDS011;6125;59.628;17.852;2022-10-31T01:21:03;4.53;;;2.47;;
12122;SDS011;6125;59.628;17.852;2022-10-31T01:23:33;3.97;;;2.43;;
12122;SDS011;6125;59.628;17.852;2022-10-31T01:26:04;5.93;;;2.80;;
12122;SDS011;6125;59.628;17.852;2022-10-31T01:28:33;6.90;;;2.37;;
12122;SDS011;6125;59.628;17.852;2022-10-31T01:31:02;8.67;;;2.57;;
12122;SDS011;6125;59.628;17.852;2022-10-31T01:33:30;6.03;;;3.20;;
12122;SDS011;6125;59.628;17.852;2022-10-31T01:35:57;3.17;;;2.50;;
12122;SDS011;6125;59.628;17.852;2022-10-31T01:38:26;7.17;;;2.40;;
12122;SDS011;6125;59.628;17.852;2022-10-31T01:40:53;3.07;;;2.40;;
12122;SDS011;6125;59.628;17.852;2022-10-31T01:43:21;4.83;;;2.50;;
12122;SDS011;6125;59.628;17.852;2022-10-31T01:45:50;5.27;;;2.97;;
12122;SDS011;6125;59.628;17.852;2022-10-31T01:48:19;2.67;;;2.30;;
12122;SDS011;6125;59.628;17.852;2022-10-31T01:50:50;4.67;;;2.53;;
12122;SDS011;6125;59.628;17.852;2022-10-31T01:53:20;5.70;;;2.97;;
12122;SDS011;6125;59.628;17.852;2022-10-31T01:55:50;5.33;;;2.50;;
12122;SDS011;6125;59.628;17.852;2022-10-31T01:58:22;7.63;;;3.30;;
12122;SDS011;6125;59.628;17.852;2022-10-31T02:00:55;4.83;;;2.90;;
12122;SDS011;6125;59.628;17.852;2022-10-31T02:03:24;7.30;;;3.27;;
12122;SDS011;6125;59.628;17.852;2022-10-31T02:05:53;4.90;;;2.67;;
12122;SDS011;6125;59.628;17.852;2022-10-31T02:08:23;5.47;;;2.93;;
12122;SDS011;6125;59.628;17.852;2022-10-31T02:10:54;8.10;;;3.30;;
12122;SDS011;6125;59.628;17.852;2022-10-31T02:13:28;3.87;;;2.97;;
12122;SDS011;6125;59.628;17.852;2022-10-31T02:16:02;5.17;;;3.40;;
12122;SDS011;6125;59.628;17.852;2022-10-31T02:18:29;4.60;;;2.93;;
12122;SDS011;6125;59.628;17.852;2022-10-31T02:21:09;8.93;;;3.43;;
12122;SDS011;6125;59.628;17.852;2022-10-31T02:26:57;6.83;;;2.70;;
12122;SDS011;6125;59.628;17.852;2022-10-31T02:32:45;6.27;;;3.37;;
12122;SDS011;6125;59.628;17.852;2022-10-31T02:38:24;5.50;;;3.23;;
12122;SDS011;6125;59.628;17.852;2022-10-31T02:41:02;5.60;;;2.80;;
12122;SDS011;6125;59.628;17.852;2022-10-31T02:43:35;5.30;;;3.00;;
12122;SDS011;6125;59.628;17.852;2022-10-31T02:46:11;4.87;;;2.80;;
12122;SDS011;6125;59.628;17.852;2022-10-31T02:48:46;9.07;;;3.03;;
12122;SDS011;6125;59.628;17.852;2022-10-31T02:51:20;5.37;;;3.03;;
12122;SDS011;6125;59.628;17.852;2022-10-31T02:53:50;5.93;;;2.83;;
12122;SDS011;6125;59.628;17.852;2022-10-31T02:56:18;4.67;;;2.90;;
12122;SDS011;6125;59.628;17.852;2022-10-31T02:58:48;6.83;;;3.13;;
12122;SDS011;6125;59.628;17.852;2022-10-31T03:01:32;3.57;;;2.70;;
12122;SDS011;6125;59.628;17.852;2022-10-31T03:04:26;4.53;;;2.90;;
12122;SDS011;6125;59.628;17.852;2022-10-31T03:07:07;3.60;;;3.10;;
12122;SDS011;6125;59.628;17.852;2022-10-31T03:09:43;4.07;;;2.77;;
12122;SDS011;6125;59.628;17.852;2022-10-31T03:12:22;6.33;;;2.83;;
12122;SDS011;6125;59.628;17.852;2022-10-31T03:14:57;6.90;;;2.80;;
12122;SDS011;6125;59.628;17.852;2022-10-31T03:17:31;5.60;;;3.30;;
12122;SDS011;6125;59.628;17.852;2022-10-31T03:20:04;7.20;;;3.27;;
12122;SDS011;6125;59.628;17.852;2022-10-31T03:22:37;5.70;;;3.30;;
12122;SDS011;6125;59.628;17.852;2022-10-31T03:25:08;6.23;;;3.27;;
12122;SDS011;6125;59.628;17.852;2022-10-31T03:27:38;6.00;;;3.23;;
12122;SDS011;6125;59.628;17.852;2022-10-31T03:30:08;7.17;;;3.47;;
12122;SDS011;6125;59.628;17.852;2022-10-31T03:32:41;4.17;;;3.20;;
12122;SDS011;6125;59.628;17.852;2022-10-31T03:35:28;8.07;;;3.07;;
12122;SDS011;6125;59.628;17.852;2022-10-31T03:37:56;4.13;;;3.17;;
12122;SDS011;6125;59.628;17.852;2022-10-31T03:40:26;7.13;;;3.17;;
12122;SDS011;6125;59.628;17.852;2022-10-31T03:43:03;7.33;;;3.70;;
12122;SDS011;6125;59.628;17.852;2022-10-31T03:45:35;5.03;;;3.70;;
12122;SDS011;6125;59.628;17.852;2022-10-31T03:48:09;7.97;;;3.23;;
12122;SDS011;6125;59.628;17.852;2022-10-31T03:50:42;9.53;;;3.37;;
12122;SDS011;6125;59.628;17.852;2022-10-31T03:53:16;9.03;;;3.50;;
12122;SDS011;6125;59.628;17.852;2022-10-31T03:55:49;8.97;;;3.37;;
12122;SDS011;6125;59.628;17.852;2022-10-31T03:58:21;9.80;;;3.50;;
12122;SDS011;6125;59.628;17.852;2022-10-31T04:00:51;7.80;;;3.40;;
12122;SDS011;6125;59.628;17.852;2022-10-31T04:03:21;8.30;;;3.43;;
12122;SDS011;6125;59.628;17.852;2022-10-31T04:05:53;5.03;;;3.57;;
12122;SDS011;6125;59.628;17.852;2022-10-31T04:08:27;3.73;;;3.00;;
12122;SDS011;6125;59.628;17.852;2022-10-31T04:10:56;8.83;;;3.77;;
12122;SDS011;6125;59.628;17.852;2022-10-31T04:13:29;4.33;;;2.93;;
12122;SDS011;6125;59.628;17.852;2022-10-31T04:16:01;5.37;;;3.20;;
12122;SDS011;6125;59.628;17.852;2022-10-31T04:18:31;6.00;;;3.60;;
12122;SDS011;6125;59.628;17.852;2022-10-31T04:21:03;5.87;;;3.67;;
12122;SDS011;6125;59.628;17.852;2022-10-31T04:23:35;8.27;;;3.60;;
12122;SDS011;6125;59.628;17.852;2022-10-31T04:26:03;7.90;;;3.87;;
12122;SDS011;6125;59.628;17.852;2022-10-31T04:28:36;7.20;;;3.87;;
12122;SDS011;6125;59.628;17.852;2022-10-31T04:31:06;6.40;;;3.63;;
12122;SDS011;6125;59.628;17.852;2022-10-31T04:33:34;10.10;;;3.57;;
12122;SDS011;6125;59.628;17.852;2022-10-31T04:36:05;6.20;;;3.67;;
12122;SDS011;6125;59.628;17.852;2022-10-31T04:38:32;5.67;;;3.57;;
12122;SDS011;6125;59.628;17.852;2022-10-31T04:41:01;11.33;;;4.20;;
12122;SDS011;6125;59.628;17.852;2022-10-31T04:43:28;7.53;;;3.47;;
12122;SDS011;6125;59.628;17.852;2022-10-31T04:45:55;7.10;;;3.57;;
12122;SDS011;6125;59.628;17.852;2022-10-31T04:48:22;7.67;;;3.80;;
12122;SDS011;6125;59.628;17.852;2022-10-31T04:50:49;7.07;;;3.73;;
12122;SDS011;6125;59.628;17.852;2022-10-31T04:53:18;8.27;;;3.83;;
12122;SDS011;6125;59.628;17.852;2022-10-31T04:55:47;7.07;;;3.87;;
12122;SDS011;6125;59.628;17.852;2022-10-31T04:58:14;7.70;;;3.70;;
12122;SDS011;6125;59.628;17.852;2022-10-31T05:00:43;12.87;;;3.73;;
12122;SDS011;6125;59.628;17.852;2022-10-31T05:03:13;10.07;;;3.70;;
12122;SDS011;6125;59.628;17.852;2022-10-31T05:05:43;5.13;;;3.60;;
12122;SDS011;6125;59.628;17.852;2022-10-31T05:08:10;8.73;;;4.00;;
12122;SDS011;6125;59.628;17.852;2022-10-31T05:10:38;5.87;;;3.77;;
12122;SDS011;6125;59.628;17.852;2022-10-31T05:13:05;6.77;;;3.80;;
12122;SDS011;6125;59.628;17.852;2022-10-31T05:15:33;7.53;;;3.87;;
12122;SDS011;6125;59.628;17.852;2022-10-31T05:18:03;7.30;;;3.80;;
12122;SDS011;6125;59.628;17.852;2022-10-31T05:20:30;6.33;;;3.87;;
12122;SDS011;6125;59.628;17.852;2022-10-31T05:22:58;12.20;;;3.93;;
12122;SDS011;6125;59.628;17.852;2022-10-31T05:25:26;10.37;;;4.03;;
12122;SDS011;6125;59.628;17.852;2022-10-31T05:27:56;10.60;;;4.47;;
12122;SDS011;6125;59.628;17.852;2022-10-31T05:30:27;10.73;;;4.67;;
12122;SDS011;6125;59.628;17.852;2022-10-31T05:32:55;9.47;;;4.27;;
12122;SDS011;6125;59.628;17.852;2022-10-31T05:35:26;15.23;;;4.67;;
12122;SDS011;6125;59.628;17.852;2022-10-31T05:37:58;9.83;;;4.20;;
12122;SDS011;6125;59.628;17.852;2022-10-31T05:40:25;11.80;;;4.77;;
12122;SDS011;6125;59.628;17.852;2022-10-31T05:43:03;12.30;;;4.47;;
12122;SDS011;6125;59.628;17.852;2022-10-31T05:45:33;10.77;;;4.90;;
12122;SDS011;6125;59.628;17.852;2022-10-31T05:48:02;17.60;;;4.53;;
12122;SDS011;6125;59.628;17.852;2022-10-31T05:50:34;15.57;;;4.80;;
12122;SDS011;6125;59.628;17.852;2022-10-31T05:53:02;9.27;;;5.33;;
12122;SDS011;6125;59.628;17.852;2022-10-31T05:55:31;8.40;;;4.60;;
12122;SDS011;6125;59.628;17.852;2022-10-31T05:58:01;15.93;;;6.07;;
12122;SDS011;6125;59.628;17.852;2022-10-31T06:00:29;10.80;;;5.63;;
12122;SDS011;6125;59.628;17.852;2022-10-31T06:03:00;12.20;;;5.70;;
12122;SDS011;6125;59.628;17.852;2022-10-31T06:05:29;13.73;;;5.23;;
12122;SDS011;6125;59.628;17.852;2022-10-31T06:07:56;15.37;;;6.27;;
12122;SDS011;6125;59.628;17.852;2022-10-31T06:10:24;15.27;;;5.50;;
12122;SDS011;6125;59.628;17.852;2022-10-31T06:12:54;18.07;;;6.13;;
12122;SDS011;6125;59.628;17.852;2022-10-31T06:15:22;15.90;;;5.57;;
12122;SDS011;6125;59.628;17.852;2022-10-31T06:17:58;15.37;;;5.63;;
12122;SDS011;6125;59.628;17.852;2022-10-31T06:20:25;20.97;;;6.00;;
12122;SDS011;6125;59.628;17.852;2022-10-31T06:22:52;12.70;;;6.37;;
12122;SDS011;6125;59.628;17.852;2022-10-31T06:25:19;22.07;;;6.33;;
12122;SDS011;6125;59.628;17.852;2022-10-31T06:27:46;15.70;;;5.57;;
12122;SDS011;6125;59.628;17.852;2022-10-31T06:30:14;15.23;;;6.13;;
12122;SDS011;6125;59.628;17.852;2022-10-31T06:32:42;14.00;;;6.33;;
12122;SDS011;6125;59.628;17.852;2022-10-31T06:35:14;11.80;;;7.33;;
12122;SDS011;6125;59.628;17.852;2022-10-31T06:37:42;14.50;;;6.43;;
12122;SDS011;6125;59.628;17.852;2022-10-31T06:40:17;10.93;;;5.37;;
12122;SDS011;6125;59.628;17.852;2022-10-31T06:42:58;12.20;;;6.23;;
12122;SDS011;6125;59.628;17.852;2022-10-31T06:45:26;8.80;;;5.87;;
12122;SDS011;6125;59.628;17.852;2022-10-31T06:47:55;9.73;;;5.57;;
12122;SDS011;6125;59.628;17.852;2022-10-31T06:50:22;9.43;;;5.77;;
12122;SDS011;6125;59.628;17.852;2022-10-31T06:52:50;10.17;;;5.37;;
12122;SDS011;6125;59.628;17.852;2022-10-31T06:55:21;11.20;;;5.77;;
12122;SDS011;6125;59.628;17.852;2022-10-31T06:57:49;8.40;;;5.67;;
12122;SDS011;6125;59.628;17.852;2022-10-31T07:00:19;7.73;;;5.50;;
12122;SDS011;6125;59.628;17.852;2022-10-31T07:02:57;11.87;;;5.80;;
12122;SDS011;6125;59.628;17.852;2022-10-31T07:05:25;9.00;;;5.97;;
12122;SDS011;6125;59.628;17.852;2022-10-31T07:07:53;10.83;;;5.33;;
12122;SDS011;6125;59.628;17.852;2022-10-31T07:10:25;10.87;;;5.53;;
12122;SDS011;6125;59.628;17.852;2022-10-31T07:12:54;9.63;;;5.73;;
12122;SDS011;6125;59.628;17.852;2022-10-31T07:15:22;9.00;;;5.40;;
12122;SDS011;6125;59.628;17.852;2022-10-31T07:18:00;7.67;;;5.70;;
12122;SDS011;6125;59.628;17.852;2022-10-31T07:20:32;8.83;;;5.40;;
12122;SDS011;6125;59.628;17.852;2022-10-31T07:22:59;10.53;;;5.80;;
12122;SDS011;6125;59.628;17.852;2022-10-31T07:25:26;10.07;;;5.20;;
12122;SDS011;6125;59.628;17.852;2022-10-31T07:27:56;11.77;;;5.87;;
12122;SDS011;6125;59.628;17.852;2022-10-31T07:30:26;8.03;;;5.80;;
12122;SDS011;6125;59.628;17.852;2022-10-31T07:33:02;12.30;;;6.03;;
12122;SDS011;6125;59.628;17.852;2022-10-31T07:35:34;10.63;;;5.53;;
12122;SDS011;6125;59.628;17.852;2022-10-31T07:38:08;10.90;;;5.93;;
12122;SDS011;6125;59.628;17.852;2022-10-31T07:40:38;8.03;;;5.70;;
12122;SDS011;6125;59.628;17.852;2022-10-31T07:43:08;9.47;;;5.33;;
12122;SDS011;6125;59.628;17.852;2022-10-31T07:45:37;11.27;;;6.17;;
12122;SDS011;6125;59.628;17.852;2022-10-31T07:48:07;13.40;;;5.97;;
12122;SDS011;6125;59.628;17.852;2022-10-31T07:50:36;12.30;;;5.80;;
12122;SDS011;6125;59.628;17.852;2022-10-31T07:53:05;12.83;;;5.73;;
12122;SDS011;6125;59.628;17.852;2022-10-31T07:55:36;11.13;;;6.10;;
12122;SDS011;6125;59.628;17.852;2022-10-31T07:58:08;15.30;;;5.93;;
12122;SDS011;6125;59.628;17.852;2022-10-31T08:00:37;13.23;;;6.10;;
12122;SDS011;6125;59.628;17.852;2022-10-31T08:03:11;15.43;;;7.13;;
12122;SDS011;6125;59.628;17.852;2022-10-31T08:05:39;12.23;;;6.37;;
12122;SDS011;6125;59.628;17.852;2022-10-31T08:08:12;10.37;;;5.93;;
12122;SDS011;6125;59.628;17.852;2022-10-31T08:10:43;13.67;;;6.40;;
12122;SDS011;6125;59.628;17.852;2022-10-31T08:13:10;8.10;;;5.47;;
12122;SDS011;6125;59.628;17.852;2022-10-31T08:15:38;12.30;;;5.47;;
12122;SDS011;6125;59.628;17.852;2022-10-31T08:18:12;15.33;;;6.50;;
12122;SDS011;6125;59.628;17.852;2022-10-31T08:20:39;14.57;;;6.30;;
12122;SDS011;6125;59.628;17.852;2022-10-31T08:23:06;16.13;;;6.60;;
12122;SDS011;6125;59.628;17.852;2022-10-31T08:25:38;14.53;;;6.17;;
12122;SDS011;6125;59.628;17.852;2022-10-31T08:28:07;13.93;;;6.37;;
12122;SDS011;6125;59.628;17.852;2022-10-31T08:30:36;10.47;;;6.17;;
12122;SDS011;6125;59.628;17.852;2022-10-31T08:33:04;19.20;;;6.53;;
12122;SDS011;6125;59.628;17.852;2022-10-31T08:35:35;14.10;;;6.70;;
12122;SDS011;6125;59.628;17.852;2022-10-31T08:38:02;12.47;;;6.23;;
12122;SDS011;6125;59.628;17.852;2022-10-31T08:40:30;13.70;;;5.60;;
12122;SDS011;6125;59.628;17.852;2022-10-31T08:42:58;10.97;;;5.70;;
12122;SDS011;6125;59.628;17.852;2022-10-31T08:45:28;12.37;;;6.23;;
12122;SDS011;6125;59.628;17.852;2022-10-31T08:47:56;11.17;;;5.87;;
12122;SDS011;6125;59.628;17.852;2022-10-31T08:50:24;10.63;;;6.07;;
12122;SDS011;6125;59.628;17.852;2022-10-31T08:52:58;13.93;;;5.37;;
12122;SDS011;6125;59.628;17.852;2022-10-31T08:55:26;16.50;;;6.60;;
12122;SDS011;6125;59.628;17.852;2022-10-31T08:57:54;14.13;;;6.10;;
12122;SDS011;6125;59.628;17.852;2022-10-31T09:00:22;13.23;;;6.10;;
12122;SDS011;6125;59.628;17.852;2022-10-31T09:02:54;10.73;;;6.10;;
12122;SDS011;6125;59.628;17.852;2022-10-31T09:05:24;9.77;;;6.17;;
12122;SDS011;6125;59.628;17.852;2022-10-31T09:07:53;14.53;;;6.07;;
12122;SDS011;6125;59.628;17.852;2022-10-31T09:10:25;13.67;;;6.53;;
12122;SDS011;6125;59.628;17.852;2022-10-31T09:12:56;13.37;;;6.20;;
12122;SDS011;6125;59.628;17.852;2022-10-31T09:15:23;16.33;;;6.23;;
12122;SDS011;6125;59.628;17.852;2022-10-31T09:17:56;16.37;;;7.50;;
12122;SDS011;6125;59.628;17.852;2022-10-31T09:20:29;13.30;;;6.23;;
12122;SDS011;6125;59.628;17.852;2022-10-31T09:23:01;11.37;;;6.70;;
12122;SDS011;6125;59.628;17.852;2022-10-31T09:25:32;9.90;;;5.50;;
12122;SDS011;6125;59.628;17.852;2022-10-31T09:28:01;17.43;;;7.03;;
12122;SDS011;6125;59.628;17.852;2022-10-31T09:30:30;11.70;;;6.53;;
12122;SDS011;6125;59.628;17.852;2022-10-31T09:32:59;17.43;;;6.23;;
12122;SDS011;6125;59.628;17.852;2022-10-31T09:35:28;10.13;;;6.30;;
12122;SDS011;6125;59.628;17.852;2022-10-31T09:37:55;16.27;;;7.33;;
12122;SDS011;6125;59.628;17.852;2022-10-31T09:40:32;12.23;;;6.30;;
12122;SDS011;6125;59.628;17.852;2022-10-31T09:43:07;14.07;;;6.90;;
12122;SDS011;6125;59.628;17.852;2022-10-31T09:45:41;13.70;;;6.77;;
12122;SDS011;6125;59.628;17.852;2022-10-31T09:51:19;12.63;;;6.30;;
12122;SDS011;6125;59.628;17.852;2022-10-31T09:53:50;11.63;;;5.80;;
12122;SDS011;6125;59.628;17.852;2022-10-31T09:56:31;14.30;;;6.67;;
12122;SDS011;6125;59.628;17.852;2022-10-31T09:59:00;12.80;;;5.33;;
12122;SDS011;6125;59.628;17.852;2022-10-31T10:01:30;12.37;;;6.10;;
12122;SDS011;6125;59.628;17.852;2022-10-31T10:04:16;12.57;;;6.17;;
12122;SDS011;6125;59.628;17.852;2022-10-31T10:07:01;10.33;;;5.77;;
12122;SDS011;6125;59.628;17.852;2022-10-31T10:09:34;11.83;;;6.10;;
12122;SDS011;6125;59.628;17.852;2022-10-31T10:12:12;10.17;;;5.87;;
12122;SDS011;6125;59.628;17.852;2022-10-31T10:14:47;9.57;;;5.93;;
12122;SDS011;6125;59.628;17.852;2022-10-31T10:17:26;11.63;;;6.20;;
12122;SDS011;6125;59.628;17.852;2022-10-31T10:20:09;11.43;;;5.47;;
12122;SDS011;6125;59.628;17.852;2022-10-31T10:22:55;7.57;;;5.33;;
12122;SDS011;6125;59.628;17.852;2022-10-31T10:25:31;7.67;;;5.27;;
12122;SDS011;6125;59.628;17.852;2022-10-31T10:28:08;13.27;;;5.90;;
12122;SDS011;6125;59.628;17.852;2022-10-31T10:30:47;9.90;;;5.77;;
12122;SDS011;6125;59.628;17.852;2022-10-31T10:33:18;8.40;;;5.43;;
12122;SDS011;6125;59.628;17.852;2022-10-31T10:35:53;11.97;;;5.43;;
12122;SDS011;6125;59.628;17.852;2022-10-31T10:38:27;7.33;;;5.40;;
12122;SDS011;6125;59.628;17.852;2022-10-31T10:41:04;8.40;;;5.70;;
12122;SDS011;6125;59.628;17.852;2022-10-31T10:43:37;11.93;;;5.30;;
12122;SDS011;6125;59.628;17.852;2022-10-31T10:46:12;10.23;;;5.13;;
12122;SDS011;6125;59.628;17.852;2022-10-31T10:49:04;10.90;;;5.50;;
12122;SDS011;6125;59.628;17.852;2022-10-31T10:51:40;8.63;;;5.03;;
12122;SDS011;6125;59.628;17.852;2022-10-31T10:54:38;9.13;;;5.17;;
12122;SDS011;6125;59.628;17.852;2022-10-31T10:57:15;9.53;;;5.37;;
12122;SDS011;6125;59.628;17.852;2022-10-31T11:00:13;9.00;;;5.30;;
12122;SDS011;6125;59.628;17.852;2022-10-31T11:02:51;8.73;;;5.43;;
12122;SDS011;6125;59.628;17.852;2022-10-31T11:05:22;10.23;;;5.30;;
12122;SDS011;6125;59.628;17.852;2022-10-31T11:07:52;10.60;;;5.60;;
12122;SDS011;6125;59.628;17.852;2022-10-31T11:10:19;8.33;;;5.20;;
12122;SDS011;6125;59.628;17.852;2022-10-31T11:12:57;8.30;;;5.30;;
12122;SDS011;6125;59.628;17.852;2022-10-31T11:15:30;8.53;;;5.30;;
12122;SDS011;6125;59.628;17.852;2022-10-31T11:17:58;7.00;;;5.43;;
12122;SDS011;6125;59.628;17.852;2022-10-31T11:20:27;8.67;;;5.63;;
12122;SDS011;6125;59.628;17.852;2022-10-31T11:23:03;10.57;;;6.03;;
12122;SDS011;6125;59.628;17.852;2022-10-31T11:25:49;11.00;;;5.40;;
12122;SDS011;6125;59.628;17.852;2022-10-31T11:28:22;7.83;;;5.57;;
12122;SDS011;6125;59.628;17.852;2022-10-31T11:30:51;8.47;;;6.13;;
12122;SDS011;6125;59.628;17.852;2022-10-31T11:33:21;9.80;;;5.93;;
12122;SDS011;6125;59.628;17.852;2022-10-31T11:35:52;9.83;;;5.20;;
12122;SDS011;6125;59.628;17.852;2022-10-31T11:38:21;7.97;;;5.90;;
12122;SDS011;6125;59.628;17.852;2022-10-31T11:40:53;10.33;;;5.13;;
12122;SDS011;6125;59.628;17.852;2022-10-31T11:43:23;6.30;;;4.83;;
12122;SDS011;6125;59.628;17.852;2022-10-31T11:45:55;8.47;;;5.13;;
12122;SDS011;6125;59.628;17.852;2022-10-31T11:48:23;6.80;;;4.97;;
12122;SDS011;6125;59.628;17.852;2022-10-31T11:50:54;6.07;;;4.13;;
12122;SDS011;6125;59.628;17.852;2022-10-31T11:53:24;7.23;;;4.50;;
12122;SDS011;6125;59.628;17.852;2022-10-31T11:56:04;9.23;;;5.00;;
12122;SDS011;6125;59.628;17.852;2022-10-31T11:58:36;5.87;;;4.43;;
12122;SDS011;6125;59.628;17.852;2022-10-31T12:01:08;8.27;;;4.63;;
12122;SDS011;6125;59.628;17.852;2022-10-31T12:03:51;5.13;;;3.90;;
12122;SDS011;6125;59.628;17.852;2022-10-31T12:06:32;7.33;;;4.53;;
12122;SDS011;6125;59.628;17.852;2022-10-31T12:09:04;7.70;;;4.87;;
12122;SDS011;6125;59.628;17.852;2022-10-31T12:11:46;8.30;;;4.77;;
12122;SDS011;6125;59.628;17.852;2022-10-31T12:14:28;5.20;;;4.30;;
12122;SDS011;6125;59.628;17.852;2022-10-31T12:17:04;6.87;;;4.40;;
12122;SDS011;6125;59.628;17.852;2022-10-31T12:19:42;7.33;;;4.40;;
12122;SDS011;6125;59.628;17.852;2022-10-31T12:22:17;7.87;;;4.63;;
12122;SDS011;6125;59.628;17.852;2022-10-31T12:24:59;6.90;;;4.20;;
12122;SDS011;6125;59.628;17.852;2022-10-31T12:27:50;7.10;;;4.03;;
12122;SDS011;6125;59.628;17.852;2022-10-31T12:30:27;7.07;;;3.83;;
12122;SDS011;6125;59.628;17.852;2022-10-31T12:33:11;30.37;;;22.60;;
12122;SDS011;6125;59.628;17.852;2022-10-31T12:35:51;9.27;;;5.67;;
12122;SDS011;6125;59.628;17.852;2022-10-31T12:38:39;6.50;;;4.13;;
12122;SDS011;6125;59.628;17.852;2022-10-31T12:41:21;5.07;;;4.10;;
12122;SDS011;6125;59.628;17.852;2022-10-31T12:44:02;6.27;;;3.73;;
12122;SDS011;6125;59.628;17.852;2022-10-31T12:46:41;6.80;;;4.07;;
12122;SDS011;6125;59.628;17.852;2022-10-31T12:52:17;5.60;;;4.03;;
12122;SDS011;6125;59.628;17.852;2022-10-31T12:55:00;7.03;;;4.57;;
12122;SDS011;6125;59.628;17.852;2022-10-31T12:57:39;8.80;;;4.87;;
12122;SDS011;6125;59.628;17.852;2022-10-31T13:00:11;8.03;;;4.67;;
12122;SDS011;6125;59.628;17.852;2022-10-31T13:02:42;8.77;;;4.57;;
12122;SDS011;6125;59.628;17.852;2022-10-31T13:05:17;6.33;;;4.10;;
12122;SDS011;6125;59.628;17.852;2022-10-31T13:07:49;11.63;;;5.23;;
12122;SDS011;6125;59.628;17.852;2022-10-31T13:10:22;8.50;;;4.83;;
12122;SDS011;6125;59.628;17.852;2022-10-31T13:12:53;7.63;;;4.93;;
12122;SDS011;6125;59.628;17.852;2022-10-31T13:15:24;12.60;;;5.17;;
12122;SDS011;6125;59.628;17.852;2022-10-31T13:17:54;6.60;;;4.73;;
12122;SDS011;6125;59.628;17.852;2022-10-31T13:20:31;10.93;;;4.80;;
12122;SDS011;6125;59.628;17.852;2022-10-31T13:23:04;12.03;;;5.43;;
12122;SDS011;6125;59.628;17.852;2022-10-31T13:25:38;9.50;;;4.97;;
12122;SDS011;6125;59.628;17.852;2022-10-31T13:28:11;9.83;;;5.20;;
12122;SDS011;6125;59.628;17.852;2022-10-31T13:30:53;7.60;;;5.17;;
12122;SDS011;6125;59.628;17.852;2022-10-31T13:33:26;7.13;;;4.77;;
12122;SDS011;6125;59.628;17.852;2022-10-31T13:36:08;7.43;;;5.20;;
12122;SDS011;6125;59.628;17.852;2022-10-31T13:38:46;9.50;;;4.90;;
12122;SDS011;6125;59.628;17.852;2022-10-31T13:41:22;7.67;;;5.03;;
12122;SDS011;6125;59.628;17.852;2022-10-31T13:43:59;13.03;;;5.43;;
12122;SDS011;6125;59.628;17.852;2022-10-31T13:46:34;10.47;;;5.10;;
12122;SDS011;6125;59.628;17.852;2022-10-31T13:49:03;9.07;;;5.40;;
12122;SDS011;6125;59.628;17.852;2022-10-31T13:51:33;9.53;;;5.43;;
12122;SDS011;6125;59.628;17.852;2022-10-31T13:54:06;12.17;;;5.53;;
12122;SDS011;6125;59.628;17.852;2022-10-31T13:56:50;12.43;;;5.10;;
12122;SDS011;6125;59.628;17.852;2022-10-31T13:59:21;9.23;;;5.13;;
12122;SDS011;6125;59.628;17.852;2022-10-31T14:01:51;10.37;;;5.40;;
12122;SDS011;6125;59.628;17.852;2022-10-31T14:04:21;7.70;;;4.80;;
12122;SDS011;6125;59.628;17.852;2022-10-31T14:07:05;8.60;;;4.97;;
12122;SDS011;6125;59.628;17.852;2022-10-31T14:09:34;12.37;;;5.50;;
12122;SDS011;6125;59.628;17.852;2022-10-31T14:12:07;12.67;;;5.03;;
12122;SDS011;6125;59.628;17.852;2022-10-31T14:14:43;8.80;;;5.03;;
12122;SDS011;6125;59.628;17.852;2022-10-31T14:17:17;12.50;;;4.93;;
12122;SDS011;6125;59.628;17.852;2022-10-31T14:20:02;8.77;;;4.67;;
12122;SDS011;6125;59.628;17.852;2022-10-31T14:22:47;9.80;;;5.33;;
12122;SDS011;6125;59.628;17.852;2022-10-31T14:25:24;11.57;;;4.97;;
12122;SDS011;6125;59.628;17.852;2022-10-31T14:27:52;7.37;;;4.60;;
12122;SDS011;6125;59.628;17.852;2022-10-31T14:30:22;13.67;;;5.50;;
12122;SDS011;6125;59.628;17.852;2022-10-31T14:32:53;11.53;;;5.30;;
12122;SDS011;6125;59.628;17.852;2022-10-31T14:35:25;13.53;;;6.63;;
12122;SDS011;6125;59.628;17.852;2022-10-31T14:41:14;10.40;;;5.30;;
12122;SDS011;6125;59.628;17.852;2022-10-31T14:44:04;9.77;;;5.50;;
12122;SDS011;6125;59.628;17.852;2022-10-31T14:46:57;9.50;;;5.27;;
12122;SDS011;6125;59.628;17.852;2022-10-31T14:49:33;11.83;;;5.40;;
12122;SDS011;6125;59.628;17.852;2022-10-31T14:52:11;12.20;;;5.70;;
12122;SDS011;6125;59.628;17.852;2022-10-31T14:54:43;13.20;;;6.57;;
12122;SDS011;6125;59.628;17.852;2022-10-31T14:57:16;10.70;;;5.50;;
12122;SDS011;6125;59.628;17.852;2022-10-31T14:59:48;11.53;;;5.67;;
12122;SDS011;6125;59.628;17.852;2022-10-31T15:02:18;11.90;;;6.17;;
12122;SDS011;6125;59.628;17.852;2022-10-31T15:04:57;13.97;;;6.10;;
12122;SDS011;6125;59.628;17.852;2022-10-31T15:07:25;12.27;;;6.83;;
12122;SDS011;6125;59.628;17.852;2022-10-31T15:09:55;14.87;;;6.93;;
12122;SDS011;6125;59.628;17.852;2022-10-31T15:12:25;11.50;;;6.67;;
12122;SDS011;6125;59.628;17.852;2022-10-31T15:14:54;13.20;;;6.47;;
12122;SDS011;6125;59.628;17.852;2022-10-31T15:17:21;13.80;;;7.07;;
12122;SDS011;6125;59.628;17.852;2022-10-31T15:19:49;11.13;;;6.17;;
12122;SDS011;6125;59.628;17.852;2022-10-31T15:22:18;13.20;;;6.43;;
12122;SDS011;6125;59.628;17.852;2022-10-31T15:24:47;12.63;;;6.43;;
12122;SDS011;6125;59.628;17.852;2022-10-31T15:27:21;13.87;;;6.63;;
12122;SDS011;6125;59.628;17.852;2022-10-31T15:29:50;11.47;;;5.70;;
12122;SDS011;6125;59.628;17.852;2022-10-31T15:32:19;9.50;;;6.20;;